This is the latest recevied weather packets stored in our database for station/object W7PLC. If no packets are shown the sender has not sent any weather packets the latest 10 day(s).
| Time | Temp. | Humidity | Pressure | Rain* | Wind** | Luminosity | Snow |
|---|---|---|---|---|---|---|---|
| 1777661714 | 21.67° C | 55% | 1014.7 hPa | 0 mm | - | 599 W/m² | - |
| 1777661409 | 21.67° C | 56% | 1014.9 hPa | 0 mm | - | 606 W/m² | - |
| 1777661106 | 21.11° C | 56% | 1015 hPa | 0 mm | - | 619 W/m² | - |
| 1777660800 | 20.56° C | 56% | 1015 hPa | 0 mm | - | 383 W/m² | - |
| 1777660498 | 20° C | 59% | 1014.9 hPa | 0 mm | - | 482 W/m² | - |
| 1777660194 | 20.56° C | 56% | 1015.2 hPa | 0 mm | - | 516 W/m² | - |
| 1777659891 | 21.11° C | 55% | 1015.2 hPa | 0 mm | - | 508 W/m² | - |
| 1777659588 | 20.56° C | 58% | 1015 hPa | 0 mm | - | 531 W/m² | - |
| 1777659285 | 19.44° C | 63% | 1015.1 hPa | 0 mm | - | 480 W/m² | - |
| 1777658982 | 19.44° C | 64% | 1014.9 hPa | 0 mm | - | 189 W/m² | - |
| 1777658679 | 19.44° C | 63% | 1015.1 hPa | 0 mm | - | 400 W/m² | - |
| 1777658375 | 18.89° C | 64% | 1015 hPa | 0 mm | - | 460 W/m² | - |
| 1777658073 | 18.89° C | 66% | 1015 hPa | 0 mm | - | 385 W/m² | - |
| 1777657769 | 18.89° C | 66% | 1015.1 hPa | 0 mm | - | 169 W/m² | - |
| 1777657467 | 18.33° C | 66% | 1015.1 hPa | 0 mm | - | 341 W/m² | - |
| 1777657164 | 18.33° C | 66% | 1015 hPa | 0 mm | - | 313 W/m² | - |
| 1777656862 | 18.33° C | 66% | 1015.1 hPa | 0 mm | - | 370 W/m² | - |
| 1777656557 | 18.89° C | 66% | 1015.2 hPa | 0 mm | - | 374 W/m² | - |
| 1777656253 | 17.78° C | 67% | 1015.3 hPa | 0 mm | - | 324 W/m² | - |
| 1777655948 | 17.78° C | 68% | 1015.2 hPa | 0 mm | - | 236 W/m² | - |
| 1777655645 | 17.78° C | 68% | 1015.2 hPa | 0 mm | - | 161 W/m² | - |
| 1777655341 | 17.22° C | 68% | 1015.4 hPa | 0 mm | - | 226 W/m² | - |
| 1777655038 | 17.78° C | 68% | 1015.2 hPa | 0 mm | - | 362 W/m² | - |
| 1777654736 | 17.22° C | 70% | 1015.2 hPa | 0 mm | - | 370 W/m² | - |
| 1777654434 | 17.78° C | 69% | 1015.2 hPa | 0 mm | - | 387 W/m² | - |
* Rain latest hour (hover to see other rain measurements)
** Current wind speed in m/s (hover to see current wind gust speed)